Time;durP1;ratioP1;P1;durP2;ratioP2;P2;SDS_P1;SDS_P2;PMS_P1;PMS_P2;Temp;Humidity;BMP_temperature;BMP_pressure;BME280_temperature;BME280_humidity;BME280_pressure;Samples;Min_cycle;Max_cycle;Signal;HPM_P1;HPM_P2
2023/10/16 00:00:40;;;;;;;1.45;1.10;;;;;;;19.44;43.78;93807.31;6095274;23;20082;-89
2023/10/16 00:03:06;;;;;;;1.07;0.90;;;;;;;19.44;43.90;93807.31;6118227;23;20335;-89
2023/10/16 00:05:38;;;;;;;2.03;1.23;;;;;;;19.43;43.78;93814.03;6045852;23;20367;-89
2023/10/16 00:08:07;;;;;;;1.98;1.08;;;;;;;19.44;43.68;93806.56;6046034;23;20017;-88
2023/10/16 00:10:35;;;;;;;2.38;1.13;;;;;;;19.45;43.89;93814.28;6047025;23;20080;-89
2023/10/16 00:13:04;;;;;;;2.72;1.10;;;;;;;19.43;44.03;93814.03;6069686;23;20014;-89
2023/10/16 00:15:40;;;;;;;1.65;0.65;;;;;;;19.43;43.96;93808.56;6046423;23;20521;-89
2023/10/16 00:18:10;;;;;;;1.58;0.95;;;;;;;19.42;43.78;93809.81;6047806;23;20034;-89
2023/10/16 00:20:36;;;;;;;1.35;1.00;;;;;;;19.45;43.53;93808.06;6070618;23;20022;-89
2023/10/16 00:23:05;;;;;;;1.50;1.00;;;;;;;19.44;43.85;93803.81;6069923;23;20150;-88
2023/10/16 00:25:31;;;;;;;1.45;0.88;;;;;;;19.42;43.99;93809.06;6069874;23;20319;-89
2023/10/16 00:27:58;;;;;;;2.35;1.00;;;;;;;19.42;43.85;93803.56;6093229;23;20501;-89
2023/10/16 00:30:27;;;;;;;1.52;0.90;;;;;;;19.42;43.75;93801.59;6069583;23;20089;-89
2023/10/16 00:32:52;;;;;;;1.20;0.80;;;;;;;19.41;44.05;93802.09;6093578;23;20117;-89
2023/10/16 00:35:17;;;;;;;1.52;0.90;;;;;;;19.41;43.93;93800.09;6068454;23;20029;-89
2023/10/16 00:37:43;;;;;;;1.40;0.90;;;;;;;19.39;44.04;93799.84;6093788;23;20054;-89
2023/10/16 00:40:10;;;;;;;1.80;1.02;;;;;;;19.41;43.86;93800.09;6068325;23;20028;-89
2023/10/16 00:42:43;;;;;;;1.05;0.80;;;;;;;19.41;44.06;93793.88;6093570;23;20022;-89
2023/10/16 00:45:08;;;;;;;1.65;0.82;;;;;;;19.41;43.85;93802.09;6047249;23;20022;-89
2023/10/16 00:47:35;;;;;;;1.73;1.20;;;;;;;19.41;44.13;93791.88;6093915;23;20024;-89
2023/10/16 00:50:02;;;;;;;1.02;0.80;;;;;;;19.43;43.90;93797.59;6069645;23;20021;-89
2023/10/16 00:52:28;;;;;;;1.52;0.80;;;;;;;19.45;43.73;93792.34;6093166;23;20017;-89
2023/10/16 00:54:53;;;;;;;0.98;0.85;;;;;;;19.43;43.91;93800.34;6118449;23;20045;-89
2023/10/16 00:57:25;;;;;;;0.85;0.75;;;;;;;19.42;43.87;93790.63;6069813;23;20017;-89
2023/10/16 00:59:53;;;;;;;1.08;0.80;;;;;;;19.42;43.73;93793.34;6073660;23;20014;-89
2023/10/16 01:02:26;;;;;;;1.10;0.80;;;;;;;19.40;43.75;93784.91;6034151;23;20054;-89
2023/10/16 01:04:52;;;;;;;1.67;1.00;;;;;;;19.42;43.87;93779.66;6012240;23;20451;-89
2023/10/16 01:07:19;;;;;;;1.50;0.90;;;;;;;19.41;43.68;93782.91;6011018;23;20406;-89
2023/10/16 01:09:46;;;;;;;1.17;0.80;;;;;;;19.37;44.24;93774.94;6035318;23;20108;-89
2023/10/16 01:12:12;;;;;;;1.48;1.08;;;;;;;19.37;43.79;93780.41;6011379;23;20015;-89
2023/10/16 01:14:37;;;;;;;1.02;0.77;;;;;;;19.38;43.82;93778.44;6035320;23;20588;-88
2023/10/16 01:17:04;;;;;;;1.00;0.90;;;;;;;19.37;43.96;93779.69;6010758;23;20287;-89
2023/10/16 01:19:30;;;;;;;0.80;0.70;;;;;;;19.38;43.94;93781.91;6058972;23;20515;-89
2023/10/16 01:21:58;;;;;;;1.40;0.85;;;;;;;19.37;43.79;93774.94;6013741;23;20038;-89
2023/10/16 01:24:24;;;;;;;1.17;0.90;;;;;;;19.37;43.88;93782.41;6013120;23;20417;-89
2023/10/16 01:26:49;;;;;;;1.73;1.00;;;;;;;19.37;44.00;93779.69;6037982;23;20023;-89
2023/10/16 01:29:15;;;;;;;1.10;0.80;;;;;;;19.37;43.71;93777.69;6011941;23;20023;-89
2023/10/16 01:31:43;;;;;;;1.25;0.90;;;;;;;19.37;43.84;93771.44;6036541;23;20114;-89
2023/10/16 01:34:12;;;;;;;1.17;0.63;;;;;;;19.38;44.14;93772.94;6087168;23;20388;-89
2023/10/16 01:36:38;;;;;;;1.05;0.80;;;;;;;19.37;43.77;93772.19;6073323;23;20077;-89
2023/10/16 01:39:08;;;;;;;0.88;0.75;;;;;;;19.37;43.89;93768.72;6071160;23;20160;-89
2023/10/16 01:41:34;;;;;;;1.25;0.80;;;;;;;19.36;43.76;93759.75;6095516;23;20028;-89
2023/10/16 01:44:07;;;;;;;1.35;1.00;;;;;;;19.39;43.54;93764.22;6071127;23;20097;-89
2023/10/16 01:46:32;;;;;;;2.03;0.73;;;;;;;19.39;43.62;93755.25;6074200;23;20021;-89
2023/10/16 01:49:00;;;;;;;1.10;0.90;;;;;;;19.37;43.57;93757.75;6070837;23;20018;-89
2023/10/16 01:51:29;;;;;;;1.38;0.88;;;;;;;19.39;43.63;93758.72;6094357;23;20018;-89
2023/10/16 01:53:55;;;;;;;1.40;1.02;;;;;;;19.37;43.54;93760.50;6095968;23;20072;-89
2023/10/16 01:56:21;;;;;;;1.48;0.70;;;;;;;19.38;43.50;93753.75;6070055;23;20026;-89
2023/10/16 01:58:49;;;;;;;0.95;0.80;;;;;;;19.36;43.76;93751.53;6071552;23;20446;-89
2023/10/16 02:01:17;;;;;;;1.00;0.70;;;;;;;19.38;43.54;93753.75;6046338;23;20020;-89
2023/10/16 02:03:47;;;;;;;0.90;0.70;;;;;;;19.36;43.54;93750.78;6070250;23;20018;-89
2023/10/16 02:06:13;;;;;;;0.95;0.73;;;;;;;19.36;43.65;93748.03;6090511;23;20041;-89
2023/10/16 02:08:40;;;;;;;1.08;0.63;;;;;;;19.35;43.74;93750.03;6071415;23;20018;-88
2023/10/16 02:11:06;;;;;;;1.30;0.77;;;;;;;19.34;43.86;93747.78;6069625;23;20016;-89
2023/10/16 02:13:35;;;;;;;0.93;0.60;;;;;;;19.34;43.87;93754.03;6070539;23;20036;-89
2023/10/16 02:16:02;;;;;;;1.00;0.80;;;;;;;19.36;43.62;93754.25;6047712;23;20453;-89
2023/10/16 02:18:36;;;;;;;0.57;0.57;;;;;;;19.36;43.65;93751.53;6071443;23;20026;-88
2023/10/16 02:21:01;;;;;;;1.23;0.82;;;;;;;19.34;43.78;93751.28;6096094;23;20327;-89
2023/10/16 02:23:30;;;;;;;1.15;0.70;;;;;;;19.34;43.65;93747.78;6070071;23;20053;-89
2023/10/16 02:25:56;;;;;;;1.00;0.50;;;;;;;19.35;43.57;93741.06;6072038;23;20024;-88
2023/10/16 02:28:22;;;;;;;0.70;0.70;;;;;;;19.33;43.88;93755.28;6069490;23;20022;-88
2023/10/16 02:30:49;;;;;;;0.68;0.68;;;;;;;19.32;43.77;93742.06;6070249;23;20021;-89
2023/10/16 02:33:28;;;;;;;1.98;0.60;;;;;;;19.32;43.05;93742.81;6069305;23;20092;-88
2023/10/16 02:35:54;;;;;;;0.98;0.73;;;;;;;19.34;43.53;93737.56;6076516;23;20026;-89
2023/10/16 02:38:29;;;;;;;1.00;0.80;;;;;;;19.33;43.49;93744.31;6070271;23;20022;-89
2023/10/16 02:41:00;;;;;;;0.77;0.60;;;;;;;19.33;43.62;93738.09;6073710;23;20441;-89
2023/10/16 02:43:29;;;;;;;1.10;0.60;;;;;;;19.35;43.33;93738.31;6047728;23;20021;-89
2023/10/16 02:45:55;;;;;;;1.27;0.85;;;;;;;19.32;43.59;93753.03;6071340;23;20013;-89
2023/10/16 02:48:21;;;;;;;2.15;0.52;;;;;;;19.33;43.62;93746.31;6094151;23;20022;-89
2023/10/16 02:50:49;;;;;;;0.63;0.60;;;;;;;19.33;43.65;93743.56;6071322;23;20038;-89
2023/10/16 02:53:21;;;;;;;1.00;0.90;;;;;;;19.33;43.52;93738.09;6092687;23;20103;-90
2023/10/16 02:55:49;;;;;;;0.98;0.68;;;;;;;19.30;43.72;93742.56;6048798;23;20014;-88
2023/10/16 02:58:15;;;;;;;1.25;0.65;;;;;;;19.29;43.41;93734.88;6070720;23;20161;-89
2023/10/16 03:00:49;;;;;;;0.93;0.60;;;;;;;19.28;43.58;93736.84;6095193;23;20022;-89
2023/10/16 03:03:17;;;;;;;0.85;0.70;;;;;;;19.31;43.14;93743.31;6072640;23;20009;-89
2023/10/16 03:05:44;;;;;;;0.55;0.50;;;;;;;19.32;43.52;93742.06;6070386;23;20493;-88
2023/10/16 03:08:09;;;;;;;1.40;0.75;;;;;;;19.34;43.50;93740.31;6046179;23;20032;-90
2023/10/16 03:10:36;;;;;;;0.70;0.57;;;;;;;19.32;43.42;93742.06;6070607;23;20012;-89
2023/10/16 03:13:05;;;;;;;0.60;0.57;;;;;;;19.29;43.50;93745.81;6071250;23;20446;-89
2023/10/16 03:15:32;;;;;;;0.85;0.65;;;;;;;19.31;43.50;93735.84;6069665;23;20100;-89
2023/10/16 03:17:57;;;;;;;0.82;0.60;;;;;;;19.29;43.21;93737.59;6094527;23;20018;-89
2023/10/16 03:20:24;;;;;;;1.33;0.60;;;;;;;19.28;43.63;93742.34;6064232;23;20159;-89
2023/10/16 03:22:50;;;;;;;1.25;1.10;;;;;;;19.29;43.21;93730.13;6065424;23;20074;-90
2023/10/16 03:25:50;;;;;;;0.68;0.60;;;;;;;19.26;43.47;93742.13;6063975;23;20093;-89
2023/10/16 03:28:17;;;;;;;1.98;0.82;;;;;;;19.26;43.53;93736.66;6070687;23;20517;-89
2023/10/16 03:30:43;;;;;;;4.50;0.98;;;;;;;19.28;43.41;93736.84;6091513;23;20347;-89
2023/10/16 03:33:08;;;;;;;6.82;1.30;;;;;;;19.33;42.76;93741.56;6068618;23;20018;-91
2023/10/16 03:35:38;;;;;;;6.22;1.73;;;;;;;19.39;42.86;93741.53;6074007;23;20025;-88
2023/10/16 03:38:10;;;;;;;5.18;1.70;;;;;;;19.37;42.94;93744.78;6072261;23;20010;-90
2023/10/16 03:40:36;;;;;;;2.65;1.20;;;;;;;19.44;43.29;93747.00;6073942;23;20097;-89
2023/10/16 03:43:01;;;;;;;22.17;10.40;;;;;;;19.48;43.04;93738.50;6092244;23;20018;-93
2023/10/16 03:45:27;;;;;;;28.52;10.85;;;;;;;19.46;43.07;93730.03;6044243;23;20018;-88
2023/10/16 03:47:53;;;;;;;6.97;2.47;;;;;;;19.45;43.06;93745.00;6051661;23;20026;-92
2023/10/16 03:50:34;;;;;;;10.82;5.40;;;;;;;19.40;42.85;93741.03;6090180;23;20105;-92
2023/10/16 03:53:01;;;;;;;8.43;5.78;;;;;;;19.43;42.81;93739.28;6064596;23;20481;-92
2023/10/16 03:55:27;;;;;;;53.28;14.98;;;;;;;19.22;38.62;93730.69;6060851;23;20011;-91
2023/10/16 03:57:57;;;;;;;24.30;4.72;;;;;;;19.00;36.48;93728.81;6063614;23;20090;-90
2023/10/16 04:00:27;;;;;;;19.38;3.50;;;;;;;18.92;36.63;93738.09;6062697;23;20476;-91
2023/10/16 04:02:53;;;;;;;31.58;7.32;;;;;;;18.95;37.26;93735.06;6066308;23;20446;-89
2023/10/16 04:05:39;;;;;;;13.73;4.57;;;;;;;19.01;37.70;93732.31;6063869;23;20021;-89
2023/10/16 04:08:05;;;;;;;14.55;4.38;;;;;;;19.02;38.29;93720.84;6066994;23;20572;-92
2023/10/16 04:10:30;;;;;;;23.65;6.03;;;;;;;19.02;38.43;93726.31;6087917;23;20033;-90
2023/10/16 04:12:59;;;;;;;14.35;4.55;;;;;;;19.01;37.19;93730.31;6064860;23;20015;-90
2023/10/16 04:18:09;;;;;;;14.80;3.42;;;;;;;18.90;38.03;93721.41;6088427;23;20126;-90
2023/10/16 04:20:43;;;;;;;77.75;9.13;;;;;;;18.97;37.75;93726.34;6064991;23;20046;-89
2023/10/16 04:29:22;;;;;;;26.95;8.60;;;;;;;18.92;38.15;93722.38;6068180;23;20085;-90
2023/10/16 04:50:37;;;;;;;21.95;8.02;;;;;;;18.69;35.76;93737.44;6086530;23;20057;-91
2023/10/16 05:11:27;;;;;;;34.53;14.65;;;;;;;19.00;38.52;93737.03;6089404;23;20140;-88
2023/10/16 06:14:09;;;;;;;107.32;51.00;;;;;;;19.32;39.65;93762.00;5932823;24;20027;-88
2023/10/16 06:16:38;;;;;;;90.60;47.88;;;;;;;19.30;39.85;93772.72;5956410;23;20026;-89
2023/10/16 06:19:07;;;;;;;92.05;45.88;;;;;;;19.31;39.78;93766.00;6055421;23;20019;-89
2023/10/16 06:21:33;;;;;;;91.05;44.10;;;;;;;19.35;39.71;93769.22;6049722;23;20026;-87
2023/10/16 06:23:59;;;;;;;72.80;39.30;;;;;;;19.38;38.68;93764.72;6083519;23;20150;-87
2023/10/16 06:26:27;;;;;;;28.75;15.93;;;;;;;19.12;35.39;93760.38;6091000;23;20026;-89
2023/10/16 06:28:52;;;;;;;29.98;14.13;;;;;;;18.81;34.46;93767.03;6066002;23;20014;-89
2023/10/16 06:31:24;;;;;;;34.72;13.00;;;;;;;18.72;34.50;93772.03;6064307;23;20081;-90
2023/10/16 06:33:54;;;;;;;49.33;13.25;;;;;;;18.73;35.05;93766.06;6091087;23;20010;-89
2023/10/16 06:36:24;;;;;;;51.45;20.02;;;;;;;18.82;35.02;93762.31;6067023;23;20033;-90
2023/10/16 06:38:51;;;;;;;109.20;30.15;;;;;;;18.88;35.77;93762.25;6069339;23;20014;-89
2023/10/16 06:41:21;;;;;;;92.63;35.92;;;;;;;18.96;36.09;93758.47;6090142;23;20027;-93
2023/10/16 06:43:48;;;;;;;94.15;37.58;;;;;;;19.00;37.17;93760.97;6065582;23;20439;-90
2023/10/16 06:46:23;;;;;;;76.20;36.92;;;;;;;19.03;37.93;93759.94;6066968;23;20014;-92
2023/10/16 06:48:52;;;;;;;131.13;62.97;;;;;;;19.07;38.29;93760.41;6070165;23;20023;-91
2023/10/16 06:51:18;;;;;;;299.50;108.10;;;;;;;19.15;38.13;93753.91;6087521;23;20037;-89
2023/10/16 06:53:44;;;;;;;214.15;107.70;;;;;;;19.21;37.91;93750.38;6067626;23;20451;-90
2023/10/16 06:56:14;;;;;;;239.85;110.22;;;;;;;19.22;38.11;93760.84;6066006;23;20041;-90
2023/10/16 06:58:40;;;;;;;221.60;111.45;;;;;;;19.27;38.43;93753.84;6093178;23;20034;-89
2023/10/16 07:01:07;;;;;;;201.88;105.90;;;;;;;19.28;37.94;93758.78;6066309;23;20097;-90
2023/10/16 07:03:33;;;;;;;195.70;99.53;;;;;;;19.29;38.33;93754.78;6040597;23;20085;-90
2023/10/16 07:05:59;;;;;;;195.63;97.80;;;;;;;19.33;38.01;93752.53;6092889;23;20455;-89
2023/10/16 07:08:25;;;;;;;155.63;87.13;;;;;;;19.36;38.49;93759.00;6092980;23;20026;-91
2023/10/16 07:11:03;;;;;;;173.32;92.30;;;;;;;19.34;38.42;93748.53;6068776;23;20082;-89
2023/10/16 07:13:29;;;;;;;211.57;111.38;;;;;;;19.38;38.36;93753.75;6070283;23;20652;-92
2023/10/16 07:16:02;;;;;;;225.77;120.70;;;;;;;19.39;38.31;93747.03;6043482;23;20447;-91
2023/10/16 07:18:28;;;;;;;259.83;130.20;;;;;;;19.45;38.70;93743.00;6066743;23;20022;-91
2023/10/16 07:20:59;;;;;;;253.43;129.00;;;;;;;19.44;38.47;93747.00;6043284;23;20409;-91
2023/10/16 07:23:29;;;;;;;224.95;122.53;;;;;;;19.44;38.44;93738.00;6093453;23;20026;-89
2023/10/16 07:25:56;;;;;;;233.40;122.73;;;;;;;19.46;38.63;93746.47;6093998;23;20024;-89
2023/10/16 07:28:22;;;;;;;215.95;121.72;;;;;;;19.49;38.61;93737.97;6068744;23;20241;-90
2023/10/16 07:30:48;;;;;;;218.20;117.00;;;;;;;19.47;38.75;93739.75;6095254;23;20022;-90
2023/10/16 07:33:16;;;;;;;257.33;137.48;;;;;;;19.53;38.50;93743.19;6093988;23;20592;-89
2023/10/16 07:35:46;;;;;;;274.02;141.30;;;;;;;19.57;38.64;93748.41;6070720;23;20010;-91
2023/10/16 07:38:21;;;;;;;229.43;130.77;;;;;;;19.54;38.62;93743.94;6073198;23;20041;-90
2023/10/16 07:40:53;;;;;;;247.57;130.38;;;;;;;19.54;38.69;93739.19;6073841;23;20056;-91
2023/10/16 07:43:29;;;;;;;219.20;125.78;;;;;;;19.57;38.84;93746.41;6096193;23;20034;-90
2023/10/16 07:48:44;;;;;;;191.13;100.63;;;;;;;19.55;37.99;93728.97;6072643;23;20453;-90
2023/10/16 07:51:10;;;;;;;135.75;63.75;;;;;;;19.40;36.59;93732.06;6070320;23;20019;-89
2023/10/16 07:53:39;;;;;;;77.55;32.58;;;;;;;19.14;36.23;93729.72;6070859;23;20054;-91
2023/10/16 07:56:19;;;;;;;51.33;24.42;;;;;;;19.05;35.82;93727.31;6069082;23;20022;-91
2023/10/16 07:58:49;;;;;;;32.25;17.40;;;;;;;18.88;35.68;93726.63;6091032;23;20026;-91
2023/10/16 08:03:41;;;;;;;60.17;20.60;;;;;;;18.60;36.20;93735.00;6092995;23;19917;-92
2023/10/16 08:06:12;;;;;;;31.02;12.38;;;;;;;18.55;36.25;93741.22;6065777;23;20003;-92
2023/10/16 08:08:39;;;;;;;27.27;11.65;;;;;;;18.45;36.46;93735.25;6089187;23;20010;-90
2023/10/16 08:11:18;;;;;;;27.42;9.98;;;;;;;18.50;36.37;93734.50;6054018;23;20034;-94
2023/10/16 08:13:47;;;;;;;35.47;11.38;;;;;;;18.49;36.27;93730.28;6049990;23;20015;-93
2023/10/16 08:16:18;;;;;;;40.45;14.75;;;;;;;18.50;36.18;93727.03;6064271;23;20468;-94
2023/10/16 08:18:47;;;;;;;38.03;13.70;;;;;;;18.60;36.73;93727.53;6070078;23;20015;-92
2023/10/16 08:21:21;;;;;;;134.27;37.28;;;;;;;18.70;36.43;93736.94;6067181;23;20079;-89
2023/10/16 08:23:50;;;;;;;253.35;68.32;;;;;;;18.91;36.86;93733.84;6070388;23;20022;-91
2023/10/16 08:26:49;;;;;;;93.18;38.00;;;;;;;18.86;35.45;93729.13;6071555;23;20045;-92
2023/10/16 08:31:41;;;;;;;78.75;35.00;;;;;;;18.93;36.12;93729.34;6097483;23;20014;-90
2023/10/16 08:34:11;;;;;;;110.18;48.72;;;;;;;19.00;37.25;93736.31;6067393;23;20078;-92
2023/10/16 08:36:36;;;;;;;98.75;52.45;;;;;;;19.05;37.11;93741.72;6071461;23;20029;-90
2023/10/16 08:39:18;;;;;;;110.75;51.72;;;;;;;19.10;37.62;93743.69;6071146;23;20012;-90
2023/10/16 08:41:53;;;;;;;104.18;50.92;;;;;;;19.18;37.65;93738.44;6097724;23;20018;-92
2023/10/16 08:44:19;;;;;;;112.95;52.88;;;;;;;19.21;37.50;93739.41;6077073;23;20359;-91
2023/10/16 08:46:45;;;;;;;103.13;51.47;;;;;;;19.23;37.91;93734.19;6073610;23;20029;-90
2023/10/16 08:49:11;;;;;;;132.32;53.38;;;;;;;19.28;37.80;93738.84;6071601;23;20022;-90
2023/10/16 08:51:36;;;;;;;112.50;50.70;;;;;;;19.25;38.19;93739.91;6098494;23;20015;-91
2023/10/16 08:54:04;;;;;;;105.10;53.80;;;;;;;19.28;38.27;93741.59;6051229;23;20022;-92
2023/10/16 08:56:30;;;;;;;99.32;51.80;;;;;;;19.31;38.15;93738.59;6073044;23;20014;-91
2023/10/16 08:58:56;;;;;;;115.43;56.58;;;;;;;19.34;38.23;93728.59;6074635;23;20050;-92
2023/10/16 09:01:27;;;;;;;110.25;56.65;;;;;;;19.39;38.08;93736.06;6073148;23;20332;-92
2023/10/16 09:04:01;;;;;;;127.10;54.67;;;;;;;19.41;38.23;93733.53;6053561;23;20138;-93
2023/10/16 09:06:29;;;;;;;140.45;58.35;;;;;;;19.44;37.88;93732.53;6066886;23;20074;-93
2023/10/16 09:08:55;;;;;;;125.32;57.42;;;;;;;19.46;38.20;93736.25;6055240;23;20173;-93
2023/10/16 09:11:22;;;;;;;150.93;62.95;;;;;;;19.45;38.17;93732.03;6065287;23;20410;-90
2023/10/16 09:13:52;;;;;;;141.43;65.95;;;;;;;19.44;38.08;93727.06;6091837;23;20018;-92
2023/10/16 09:16:23;;;;;;;152.13;71.72;;;;;;;19.48;38.50;93727.53;6067366;23;20105;-91
2023/10/16 09:18:52;;;;;;;153.32;71.70;;;;;;;19.47;37.90;93731.50;6089518;23;20320;-91
2023/10/16 09:21:23;;;;;;;146.55;67.22;;;;;;;19.48;38.46;93714.56;6089524;23;20022;-90
2023/10/16 09:23:51;;;;;;;153.90;66.82;;;;;;;19.47;38.44;93732.25;6066932;23;20018;-88
2023/10/16 09:26:18;;;;;;;144.40;67.05;;;;;;;19.46;38.65;93728.03;6039721;23;20445;-88
2023/10/16 09:28:47;;;;;;;142.35;68.55;;;;;;;19.52;38.35;93720.50;6064833;23;20043;-88
2023/10/16 09:31:18;;;;;;;137.63;71.97;;;;;;;19.50;38.68;93725.00;6063914;23;20451;-91
2023/10/16 09:33:43;;;;;;;;;;;;;;;19.55;38.55;93724.22;6065993;23;20021;-91
2023/10/16 09:36:17;;;;;;;138.00;73.15;;;;;;;19.54;38.72;93716.53;6088829;23;19933;-91
2023/10/16 09:38:53;;;;;;;147.75;76.10;;;;;;;19.54;38.84;93720.00;6067683;23;20026;-89
2023/10/16 09:44:07;;;;;;;129.80;74.43;;;;;;;19.55;38.90;93720.75;6038542;23;20019;-91
2023/10/16 09:49:11;;;;;;;135.70;74.93;;;;;;;19.60;38.98;93719.97;6038328;23;20760;-91
2023/10/16 09:51:39;;;;;;;165.18;77.35;;;;;;;19.59;39.04;93721.22;6041193;23;20045;-91
2023/10/16 09:54:08;;;;;;;165.68;84.07;;;;;;;19.59;38.80;93716.47;6022787;23;20019;-89
2023/10/16 09:56:38;;;;;;;202.98;105.50;;;;;;;19.61;38.82;93718.72;6045287;23;20054;-91
2023/10/16 09:59:08;;;;;;;216.30;109.85;;;;;;;19.63;38.97;93710.72;6063316;23;20019;-93
2023/10/16 10:01:38;;;;;;;232.85;117.85;;;;;;;19.65;38.88;93710.97;6036013;23;20018;-93
2023/10/16 10:04:04;;;;;;;217.80;111.85;;;;;;;19.65;38.83;93705.47;6032363;23;20022;-91
2023/10/16 10:06:35;;;;;;;211.30;104.47;;;;;;;19.65;38.81;93706.22;6036116;23;20011;-91
2023/10/16 10:11:45;;;;;;;169.05;91.53;;;;;;;19.64;39.08;93701.97;6040359;23;20135;-91
2023/10/16 10:16:56;;;;;;;145.13;77.55;;;;;;;19.67;38.93;93703.72;6090636;23;20098;-90
2023/10/16 10:19:31;;;;;;;139.70;75.97;;;;;;;19.66;38.83;93696.00;6065796;23;20046;-90
2023/10/16 10:22:05;;;;;;;161.23;100.28;;;;;;;19.66;38.76;93701.47;6091170;23;20096;-92
2023/10/16 10:24:34;;;;;;;178.10;110.18;;;;;;;19.68;39.30;93694.22;6070031;23;20018;-91
2023/10/16 10:27:04;;;;;;;140.48;84.00;;;;;;;19.68;38.86;93693.47;6068796;23;20052;-90
2023/10/16 10:29:30;;;;;;;124.60;71.55;;;;;;;19.70;38.86;93691.69;6068173;23;20014;-91
2023/10/16 10:32:05;;;;;;;115.55;65.95;;;;;;;19.67;39.10;93681.78;6068558;23;20033;-90
2023/10/16 10:34:31;;;;;;;107.53;64.05;;;;;;;19.68;39.03;93685.25;6066529;23;20011;-90
2023/10/16 10:36:59;;;;;;;75.05;43.13;;;;;;;19.61;36.52;93680.31;6093084;23;20018;-90
2023/10/16 10:39:36;;;;;;;218.93;172.75;;;;;;;19.60;35.70;93684.31;6069558;23;20069;-89
2023/10/16 10:42:04;;;;;;;410.17;341.40;;;;;;;19.46;34.22;93686.16;6096307;23;20022;-90
2023/10/16 10:44:33;;;;;;;22.13;12.13;;;;;;;19.39;33.14;93681.22;6071137;23;20022;-90
2023/10/16 10:47:02;;;;;;;25.70;13.68;;;;;;;19.33;32.90;93675.78;6095739;23;20022;-91
2023/10/16 10:49:35;;;;;;;15.23;7.45;;;;;;;19.23;31.95;93677.38;6066097;23;20015;-90
2023/10/16 10:52:07;;;;;;;25.50;10.07;;;;;;;19.18;32.05;93665.19;6067286;23;20018;-91
2023/10/16 10:54:42;;;;;;;48.30;13.20;;;;;;;19.21;32.09;93671.66;6089563;23;20014;-92
2023/10/16 10:57:17;;;;;;;41.97;14.70;;;;;;;19.24;32.92;93667.16;6069387;23;20708;-89
2023/10/16 10:59:47;;;;;;;75.88;32.28;;;;;;;19.28;32.67;93659.38;6071032;23;20073;-91
2023/10/16 11:04:45;;;;;;;60.25;23.33;;;;;;;19.37;34.21;93664.53;6040566;23;20014;-91
2023/10/16 11:07:23;;;;;;;72.97;30.00;;;;;;;19.39;34.54;93659.28;6037778;23;20023;-91
2023/10/16 11:09:51;;;;;;;63.47;31.50;;;;;;;19.43;35.84;93659.75;6040240;23;20018;-91
2023/10/16 11:12:16;;;;;;;64.78;32.05;;;;;;;19.47;35.62;93658.22;6014351;23;20362;-90
2023/10/16 11:14:43;;;;;;;62.13;32.83;;;;;;;19.47;35.94;93655.50;6041009;23;20074;-91
2023/10/16 11:17:08;;;;;;;73.63;35.42;;;;;;;19.53;35.90;93658.19;6038460;23;20684;-90
2023/10/16 11:19:44;;;;;;;72.30;36.65;;;;;;;19.50;35.91;93649.00;6039992;23;20019;-90
2023/10/16 11:22:09;;;;;;;92.45;46.33;;;;;;;19.54;36.37;93645.22;6015542;23;20098;-91
2023/10/16 11:24:36;;;;;;;118.15;61.40;;;;;;;19.57;36.31;93647.69;6014039;23;20019;-91
2023/10/16 11:27:05;;;;;;;139.38;69.20;;;;;;;19.56;36.24;93637.22;6031841;23;20288;-90
2023/10/16 11:29:33;;;;;;;123.25;62.35;;;;;;;19.56;36.41;93645.47;6036642;23;20406;-89
2023/10/16 11:32:06;;;;;;;119.32;65.07;;;;;;;19.55;36.58;93635.75;6037219;23;20066;-90
2023/10/16 11:34:42;;;;;;;144.63;68.85;;;;;;;19.55;36.97;93638.50;6093440;23;20504;-92
2023/10/16 11:37:12;;;;;;;153.57;72.15;;;;;;;19.53;36.64;93633.50;6091113;23;20014;-92
2023/10/16 11:39:38;;;;;;;161.98;80.18;;;;;;;19.58;36.80;93631.97;6066925;23;20089;-91
2023/10/16 11:42:03;;;;;;;191.68;92.72;;;;;;;19.58;36.92;93640.22;6044200;23;20016;-91
2023/10/16 11:44:32;;;;;;;195.27;91.88;;;;;;;19.59;37.12;93631.47;6066681;23;20128;-91
2023/10/16 11:47:00;;;;;;;183.48;87.20;;;;;;;19.58;37.07;93634.72;6067843;23;20018;-93
2023/10/16 11:49:39;;;;;;;176.65;92.20;;;;;;;19.60;37.00;93627.47;6071572;23;20026;-91
2023/10/16 11:52:27;;;;;;;186.85;87.28;;;;;;;19.59;37.23;93630.72;6072544;23;20042;-91
2023/10/16 11:54:56;;;;;;;200.95;86.63;;;;;;;19.60;37.12;93623.97;6082714;23;20018;-91
2023/10/16 11:57:25;;;;;;;173.27;81.35;;;;;;;19.60;37.28;93624.72;6069539;23;20458;-88
2023/10/16 11:59:51;;;;;;;296.50;96.63;;;;;;;19.64;37.05;93608.75;6093236;23;20018;-88
2023/10/16 12:02:23;;;;;;;236.90;91.72;;;;;;;19.66;37.17;93621.94;6090065;23;20029;-87
2023/10/16 12:04:49;;;;;;;227.82;90.60;;;;;;;19.65;37.39;93625.94;6072999;23;20048;-92
2023/10/16 12:07:16;;;;;;;244.70;113.57;;;;;;;19.68;37.48;93620.16;6091226;23;20466;-89
2023/10/16 12:09:48;;;;;;;237.85;115.03;;;;;;;19.69;37.37;93618.19;6086846;23;20019;-89
2023/10/16 12:12:19;;;;;;;244.57;105.80;;;;;;;19.72;37.30;93622.59;6068809;23;20050;-90
2023/10/16 12:14:48;;;;;;;256.52;106.78;;;;;;;19.70;37.48;93608.69;6066889;23;20022;-90
2023/10/16 12:17:19;;;;;;;268.67;100.75;;;;;;;19.74;37.36;93606.38;6056100;23;20010;-90
2023/10/16 12:19:45;;;;;;;221.40;93.82;;;;;;;19.79;37.39;93592.63;6035214;23;20490;-91
2023/10/16 12:22:11;;;;;;;188.07;90.38;;;;;;;19.79;37.40;93602.84;6060939;23;20234;-90
2023/10/16 12:24:40;;;;;;;169.90;84.72;;;;;;;19.74;37.65;93598.16;6037363;23;20030;-89
2023/10/16 12:27:05;;;;;;;165.02;82.75;;;;;;;19.72;37.70;93595.19;6037905;23;20019;-90
2023/10/16 12:29:31;;;;;;;148.18;76.07;;;;;;;19.72;37.74;93592.44;6044163;23;20019;-89
2023/10/16 12:32:00;;;;;;;164.13;79.18;;;;;;;19.73;37.35;93591.91;6062985;23;20023;-89
2023/10/16 12:34:26;;;;;;;171.63;78.10;;;;;;;19.79;37.79;93592.63;6036843;23;20030;-90
2023/10/16 12:36:51;;;;;;;159.25;77.20;;;;;;;19.80;37.66;93585.88;6034347;23;20039;-89
2023/10/16 12:39:17;;;;;;;152.63;74.80;;;;;;;19.81;37.53;93592.84;6035332;23;20023;-92
2023/10/16 12:41:43;;;;;;;124.78;68.68;;;;;;;19.82;37.91;93585.34;6035213;23;20023;-90
2023/10/16 12:44:09;;;;;;;130.35;66.30;;;;;;;19.81;37.79;93576.38;5982942;23;20479;-89
2023/10/16 12:46:36;;;;;;;113.05;63.15;;;;;;;19.84;37.87;93575.34;5984377;23;20067;-91
2023/10/16 12:49:06;;;;;;;115.72;58.78;;;;;;;19.85;37.79;93571.34;6037581;23;20022;-93
2023/10/16 12:51:34;;;;;;;112.60;58.17;;;;;;;19.86;37.72;93577.59;6056220;23;20026;-92
2023/10/16 12:54:03;;;;;;;103.38;56.40;;;;;;;19.85;37.82;93574.09;6064613;23;20037;-89
2023/10/16 12:56:31;;;;;;;96.57;55.72;;;;;;;19.83;37.92;93568.38;6064613;23;20256;-88
2023/10/16 12:58:59;;;;;;;94.93;53.97;;;;;;;19.81;37.95;93579.13;6065624;23;20033;-91
2023/10/16 13:01:25;;;;;;;117.10;54.60;;;;;;;19.85;37.91;93571.34;6063948;23;20078;-89
2023/10/16 13:03:51;;;;;;;125.57;56.90;;;;;;;19.79;37.98;93567.94;6062809;23;20030;-90
2023/10/16 13:06:16;;;;;;;101.57;54.67;;;;;;;19.85;38.06;93571.34;6066339;23;20027;-91
2023/10/16 13:08:42;;;;;;;119.30;55.22;;;;;;;19.87;38.21;93570.84;6043082;23;20022;-88
2023/10/16 13:11:10;;;;;;;118.10;55.63;;;;;;;19.84;37.92;93564.38;6066659;23;20024;-91
2023/10/16 13:13:36;;;;;;;111.80;54.92;;;;;;;19.89;38.07;93570.31;6067843;23;20021;-91
2023/10/16 13:16:04;;;;;;;97.45;51.95;;;;;;;19.86;37.84;93563.88;6070495;23;20026;-90
2023/10/16 13:18:30;;;;;;;89.57;50.65;;;;;;;19.87;38.08;93567.34;6094148;23;20030;-91
2023/10/16 13:21:06;;;;;;;103.35;53.20;;;;;;;19.87;38.08;93557.13;6050384;23;20093;-91
2023/10/16 13:23:35;;;;;;;94.18;45.75;;;;;;;19.91;37.78;93551.34;6069381;23;20011;-91
2023/10/16 13:26:01;;;;;;;123.72;56.45;;;;;;;19.84;37.88;93561.63;6073729;23;20058;-90
2023/10/16 13:28:29;;;;;;;144.55;65.50;;;;;;;19.86;38.12;93558.38;6096460;23;20022;-90
2023/10/16 13:30:54;;;;;;;174.05;79.38;;;;;;;19.86;38.23;93552.91;6067006;23;20011;-92
2023/10/16 13:33:20;;;;;;;171.30;79.85;;;;;;;19.85;38.08;93549.41;6067082;23;20011;-92